Atoka, OK (74525)

2:41 PM CDT on July 30, 2014 (GMT -0500)
Atoka Municipal (KAQR) Elev 591 ft | 34.40 °N, 96.15 °W | Change Station

Current weather conditions updated 6 minutes ago

Light Rain
Light Rain
72 °F
Feels Like 72 °F
N
4
Wind Variable Wind from SE

Today is forecast to be Much Cooler than yesterday. Thunderstorms.

Today
High -- | Low -- °F
--% Chance of Precip.
Yesterday
High -- | Low -- °F
Precip. -- in
6:33 AM 8:27 PM
Waxing Crescent, 13% visible
Pressure 30.05 in
Visibility 7.0 miles
Clouds Scattered Clouds 2400 ft
Scattered Clouds 3800 ft
Mostly Cloudy 6000 ft
Dew Point 72 °F
Humidity 100%
Rainfall 0.46 in
Snow Depth Not available.
UV 6 out of 12
Pollen 4.30 out of 12
Air Quality Not available.
Flu Activity Not available.
METAR KAQR 301935Z AUTO 13003KT 7SM -RA SCT024 SCT038 BKN060 22/22 A3005 RMK AO2 P0001

More Conditions Fewer Conditions

Pressure 30.05 in
Visibility 7.0 miles
Clouds Scattered Clouds 2400 ft
Scattered Clouds 3800 ft
Mostly Cloudy 6000 ft
Dew Point 72 °F
Humidity 100%
Rainfall 0.46 in
Snow Depth Not available.
UV 6 out of 12
Pollen 4.30 out of 12
Air Quality Not available.
Flu Activity Not available.
METAR KAQR 301935Z AUTO 13003KT 7SM -RA SCT024 SCT038 BKN060 22/22 A3005 RMK AO2 P0001

More Conditions Fewer Conditions

10-Day Weather Forecast

Almanac

Astronomy

Jul. 30, 2014 Rise Set
Actual Time 6:33 AM CDT 8:27 PM CDT
Civil Twilight 6:06 AM CDT 8:55 PM CDT
Nautical Twilight 5:32 AM CDT 9:28 PM CDT
Astronomical Twilight 4:56 AM CDT 10:04 PM CDT
Moon 9:55 AM CDT 10:23 PM CDT
Length of Visible Light 14h 49m
Length of Day
13h 53m
Tomorrow will be 1m 33s shorter.
Waxing Crescent, 13% of the Moon is Illuminated
Today
Waxing Crescent
Aug 3
First Quarter
Aug 10
Full
Aug 17
Last Quarter
Aug 25
New

Today's Extremes

State Highs State Lows

Community

WunderPhotos

Upload Photos

1,739,168 photos uploaded!

WunderBlogs® & News

Nearby

Snow Depth

Station Depth Elevation
No new snow has been reported.

Earthquake Activity

City Distance Mag. Time & Date
Guthrie, Oklahoma 124 miles 2.7 5:27 AM CDT
2014-07-24
Minimum magnitude displayed is 2.5.

Coastal Water Temperatures

Place Temperature
No Stations Reporting

Nearby Weather Stations

Station Location Temp. Dew Point Humidity Wind Precip. Elev Updated Type
MesoWest ATOKA , Lane, OK 69 °F - - North  at  - 0.00 in / hr 573 ft 12:55 PM CDT MADIS
APRSWXNET Coalgate OK , Coalgate, OK 71 °F 69 °F 92% North  at  0 mph 0.00 in / hr 623 ft 2:04 PM CDT MADIS
MesoWest COOK , Caney, OK 69 °F - - North  at  - 0.00 in / hr 533 ft 1:10 PM CDT MADIS
MesoWest CALERA , Caddo, OK 69 °F - - North  at  - 0.00 in / hr 641 ft 1:30 PM CDT MADIS

Show More Stations Show Fewer Stations